EPSC

Szczecin-Goleniów "Solidarność" Airport

Goleniow, Poland
TAF AMD EPSC 190737Z 1907/2006 30005KT 0300 FG BKN001 BECMG 1908/1910 9999 SCT020
Issued Valid From Valid To
Oct-19 @ 07:37 UTC
(2 hours ago)
Oct-19 @ 07:00 UTC
(3 hours ago)
Oct-20 @ 06:00 UTC
(in 20 hours)
Expired Click to View Oct-19 @ 07:00 to Oct-19 @ 08:00
TAF AMD EPSC 190737Z 1907/2006 30005KT 0300 FG BKN001
Wind Visibility Clouds Conditions
300° at 5 knots 306 meters
  • Broken at 100' AGL
  • Fog
Becoming Oct-19 @ 08:00 to Oct-20 @ 06:00
BECMG 1908/1910 9999 SCT020
Wind Visibility Clouds Conditions
300° at 5 knots 10,000+ meters
  • Scattered at 2,000' AGL
  • Fog
TAF AMD EPSC 190737Z 1907/2006 30005KT 0300 FG BKN001 BECMG 1908/1910 9999 SCT020
Issued Oct-19 @ 07:37 UTC
(2 hours ago)
Valid From Oct-19 @ 07:00 UTC
(3 hours ago)
Valid To Oct-20 @ 06:00 UTC
(in 20 hours)
Oct-19 @ 07:00 - Oct-19 @ 08:00
Wind Visibility
300° at 5 knots 306 meters
Clouds
  • Broken at 100' AGL
Conditions
  • Fog
Becoming Oct-19 @ 08:00 - Oct-20 @ 06:00
Wind Visibility
300° at 5 knots 10,000+ meters
Clouds
  • Scattered at 2,000' AGL
Conditions
  • Fog